createdAt,value
2023-07-09T00:02:16.567Z,49.10
2023-07-09T00:07:24.691Z,49.10
2023-07-09T00:12:28.496Z,49.20
2023-07-09T00:17:35.224Z,49.10
2023-07-09T00:22:38.236Z,49.20
2023-07-09T00:27:41.917Z,49.20
2023-07-09T00:32:46.341Z,49.20
2023-07-09T00:37:49.618Z,49.30
2023-07-09T00:42:55.513Z,49.30
2023-07-09T00:48:02.921Z,49.30
2023-07-09T00:53:12.182Z,49.20
2023-07-09T00:58:17.379Z,49.20
2023-07-09T01:03:34.259Z,49.20
2023-07-09T01:08:39.359Z,49.20
2023-07-09T01:13:45.850Z,49.20
2023-07-09T01:18:50.158Z,49.40
2023-07-09T01:23:55.846Z,49.50
2023-07-09T01:28:59.250Z,49.50
2023-07-09T01:34:02.397Z,49.30
2023-07-09T01:39:06.720Z,49.40
2023-07-09T01:44:09.674Z,49.30
2023-07-09T01:49:12.554Z,49.30
2023-07-09T01:54:17.683Z,49.30
2023-07-09T01:59:22.054Z,49.30
2023-07-09T02:04:28.515Z,49.40
2023-07-09T02:09:32.837Z,49.40
2023-07-09T02:14:35.768Z,49.40
2023-07-09T02:19:39.100Z,49.40
2023-07-09T02:24:43.466Z,49.30
2023-07-09T02:29:46.730Z,49.20
2023-07-09T02:34:53.999Z,49.20
2023-07-09T02:39:58.447Z,49.40
2023-07-09T02:45:01.473Z,50.10
2023-07-09T02:50:05.335Z,50.80
2023-07-09T02:55:10.592Z,51.40
2023-07-09T03:00:14.512Z,52.20
2023-07-09T03:05:17.679Z,52.40
2023-07-09T03:10:21.988Z,52.60
2023-07-09T03:15:24.913Z,52.90
2023-07-09T03:20:28.006Z,54.40
2023-07-09T03:25:32.611Z,55.00
2023-07-09T03:30:35.604Z,54.70
2023-07-09T03:35:39.657Z,54.80
2023-07-09T03:40:43.969Z,54.90
2023-07-09T03:45:47.792Z,55.10
2023-07-09T03:50:51.097Z,55.40
2023-07-09T03:55:57.320Z,55.70
2023-07-09T04:01:00.368Z,56.20
2023-07-09T04:06:03.519Z,56.10
2023-07-09T04:11:08.153Z,56.10
2023-07-09T04:16:12.766Z,55.80
2023-07-09T04:21:15.882Z,56.20
2023-07-09T04:26:20.144Z,56.30
2023-07-09T04:31:23.124Z,56.00
2023-07-09T04:36:27.181Z,55.90
2023-07-09T04:41:31.507Z,56.00
2023-07-09T04:46:34.597Z,56.50
2023-07-09T04:51:37.625Z,56.60
2023-07-09T04:56:41.964Z,56.70
2023-07-09T05:01:45.105Z,56.20
2023-07-09T05:06:48.103Z,56.60
2023-07-09T05:11:52.807Z,56.00
2023-07-09T05:16:55.960Z,56.70
2023-07-09T05:21:58.914Z,57.20
2023-07-09T05:27:03.284Z,56.70
2023-07-09T05:32:07.037Z,56.50
2023-07-09T05:37:09.985Z,56.30
2023-07-09T05:42:14.281Z,56.20
2023-07-09T05:47:17.682Z,56.00
2023-07-09T05:52:22.501Z,55.40
2023-07-09T05:57:27.152Z,54.60
2023-07-09T06:02:30.231Z,53.70
2023-07-09T06:07:33.373Z,53.30
2023-07-09T06:12:38.094Z,53.20
2023-07-09T06:17:41.191Z,53.40
2023-07-09T06:22:44.129Z,54.00
2023-07-09T06:27:48.367Z,54.30
2023-07-09T06:32:51.394Z,53.90
2023-07-09T06:37:54.429Z,53.70
2023-07-09T06:42:58.932Z,54.00
2023-07-09T06:48:02.345Z,53.60
2023-07-09T06:53:05.326Z,53.10
2023-07-09T06:58:09.760Z,53.00
2023-07-09T07:03:12.999Z,52.70
2023-07-09T07:08:17.238Z,52.80
2023-07-09T07:13:21.492Z,52.90
2023-07-09T07:18:24.637Z,52.70
2023-07-09T07:23:27.697Z,52.50
2023-07-09T07:28:32.174Z,52.40
2023-07-09T07:33:35.121Z,52.20
2023-07-09T07:38:38.083Z,52.00
2023-07-09T07:43:42.352Z,51.60
2023-07-09T07:48:45.277Z,51.50
2023-07-09T07:53:48.193Z,51.50
2023-07-09T07:58:52.467Z,51.50
2023-07-09T08:03:55.480Z,51.80
2023-07-09T08:08:58.427Z,52.20
2023-07-09T08:14:02.862Z,52.30
2023-07-09T08:19:06.430Z,52.40
2023-07-09T08:24:09.351Z,52.40
2023-07-09T08:29:13.641Z,52.60
2023-07-09T08:34:16.560Z,52.70
2023-07-09T08:39:19.502Z,52.90
2023-07-09T08:44:41.956Z,52.90
2023-07-09T08:49:50.899Z,53.30
2023-07-09T08:54:55.608Z,53.40
2023-07-09T09:00:14.863Z,53.20
2023-07-09T09:05:21.427Z,53.10
2023-07-09T09:10:32.278Z,52.90
2023-07-09T09:15:37.376Z,52.70
2023-07-09T09:20:42.914Z,52.70
2023-07-09T09:25:57.877Z,52.90
2023-07-09T09:31:12.301Z,52.90
2023-07-09T09:36:19.001Z,53.00
2023-07-09T09:41:24.077Z,52.90
2023-07-09T09:46:29.303Z,53.00
2023-07-09T09:51:32.837Z,52.90
2023-07-09T09:56:38.861Z,53.00
2023-07-09T10:01:43.319Z,52.90
2023-07-09T10:06:48.989Z,52.90
2023-07-09T10:11:58.190Z,52.70
2023-07-09T10:17:08.377Z,51.90
2023-07-09T10:22:22.509Z,51.50
2023-07-09T10:27:39.136Z,51.40
2023-07-09T10:32:54.611Z,51.30
2023-07-09T10:38:16.590Z,51.40
2023-07-09T10:43:24.100Z,51.00
2023-07-09T10:48:36.119Z,50.80
2023-07-09T10:53:43.456Z,50.70
2023-07-09T10:58:54.852Z,50.40
2023-07-09T11:04:04.286Z,50.10
2023-07-09T11:09:14.132Z,49.50
2023-07-09T11:14:28.739Z,51.00
2023-07-09T11:19:33.303Z,51.70
2023-07-09T11:24:48.393Z,50.20
2023-07-09T11:29:59.429Z,50.50
2023-07-09T11:35:11.867Z,50.80
2023-07-09T11:40:15.776Z,50.80
2023-07-09T11:45:23.170Z,49.70
2023-07-09T11:50:30.905Z,49.20
2023-07-09T11:55:42.094Z,49.50
2023-07-09T12:00:49.499Z,49.80
2023-07-09T12:05:55.761Z,49.70
2023-07-09T12:10:58.798Z,48.90
2023-07-09T12:16:01.827Z,48.60
2023-07-09T12:21:11.053Z,48.30
2023-07-09T12:26:16.378Z,48.60
2023-07-09T12:31:19.634Z,48.60
2023-07-09T12:36:26.735Z,48.10
2023-07-09T12:41:35.285Z,47.30
2023-07-09T12:46:38.495Z,46.00
2023-07-09T12:51:43.017Z,45.30
2023-07-09T12:56:47.073Z,45.00
2023-07-09T13:01:51.948Z,44.70
2023-07-09T13:07:00.797Z,44.30
2023-07-09T13:12:06.569Z,44.30
2023-07-09T13:17:11.797Z,44.30
2023-07-09T13:22:17.979Z,44.00
2023-07-09T13:27:21.074Z,44.10
2023-07-09T13:32:25.327Z,43.50
2023-07-09T13:37:29.912Z,42.60
2023-07-09T13:42:33.700Z,41.00
2023-07-09T13:47:37.211Z,40.10
2023-07-09T13:52:41.861Z,39.80
2023-07-09T13:57:45.799Z,40.40
2023-07-09T14:02:49.027Z,40.20
2023-07-09T14:07:53.395Z,39.70
2023-07-09T14:12:57.892Z,39.80
2023-07-09T14:18:01.106Z,39.90
2023-07-09T14:23:05.502Z,39.40
2023-07-09T14:28:12.640Z,39.30
2023-07-09T14:33:17.939Z,39.00
2023-07-09T14:38:25.109Z,39.10
2023-07-09T14:43:28.226Z,39.10
2023-07-09T14:48:31.419Z,37.90
2023-07-09T14:53:35.999Z,37.70
2023-07-09T14:58:40.128Z,36.00
2023-07-09T15:03:43.562Z,36.50
2023-07-09T15:08:48.268Z,35.60
2023-07-09T15:13:51.405Z,35.20
2023-07-09T15:18:54.462Z,34.60
2023-07-09T15:23:58.980Z,34.10
2023-07-09T15:29:02.061Z,34.40
2023-07-09T15:34:05.359Z,34.80
2023-07-09T15:39:14.779Z,34.20
2023-07-09T15:44:22.572Z,34.70
2023-07-09T15:49:27.778Z,34.10
2023-07-09T15:54:32.262Z,32.60
2023-07-09T15:59:37.056Z,29.30
2023-07-09T16:04:40.492Z,28.20
2023-07-09T16:09:46.782Z,28.60
2023-07-09T16:14:50.235Z,28.00
2023-07-09T16:19:53.226Z,29.40
2023-07-09T16:24:57.641Z,27.70
2023-07-09T16:30:00.603Z,28.40
2023-07-09T16:35:03.762Z,29.30
2023-07-09T16:40:15.948Z,30.00
2023-07-09T16:45:20.949Z,30.10
2023-07-09T16:50:26.183Z,30.60
2023-07-09T16:55:30.560Z,31.50
2023-07-09T17:00:36.448Z,32.50
2023-07-09T17:05:39.949Z,33.30
2023-07-09T17:10:46.165Z,34.10
2023-07-09T17:15:49.269Z,34.60
2023-07-09T17:20:55.351Z,35.10
2023-07-09T17:26:01.288Z,35.50
2023-07-09T17:31:04.580Z,35.80
2023-07-09T17:36:13.916Z,36.00
2023-07-09T17:41:18.375Z,36.40
2023-07-09T17:46:21.440Z,36.60
2023-07-09T17:51:24.447Z,36.70
2023-07-09T17:56:30.880Z,36.90
2023-07-09T18:01:34.010Z,37.10
2023-07-09T18:06:36.943Z,37.30
2023-07-09T18:11:41.529Z,37.50
2023-07-09T18:16:44.632Z,37.60
2023-07-09T18:21:47.795Z,37.80
2023-07-09T18:26:52.267Z,37.90
2023-07-09T18:31:55.966Z,38.10
2023-07-09T18:36:58.957Z,38.30
2023-07-09T18:42:05.983Z,38.50
2023-07-09T18:47:14.116Z,38.70
2023-07-09T18:52:18.665Z,38.70
2023-07-09T18:57:23.230Z,38.90
2023-07-09T19:02:26.796Z,39.10
2023-07-09T19:07:29.821Z,39.20
2023-07-09T19:12:34.128Z,39.30
2023-07-09T19:17:37.188Z,39.40
2023-07-09T19:22:40.975Z,39.50
2023-07-09T19:27:45.569Z,42.60
2023-07-09T19:32:51.762Z,42.40
2023-07-09T19:37:55.740Z,42.80
2023-07-09T19:43:00.142Z,42.80
2023-07-09T19:48:03.880Z,43.20
2023-07-09T19:53:19.379Z,43.00
2023-07-09T19:58:24.180Z,43.10
2023-07-09T20:03:29.567Z,43.00
2023-07-09T20:08:32.678Z,42.80
2023-07-09T20:13:37.084Z,42.50
2023-07-09T20:18:40.090Z,42.30
2023-07-09T20:23:43.077Z,41.80
2023-07-09T20:28:47.587Z,41.60
2023-07-09T20:33:56.565Z,41.80
2023-07-09T20:38:59.572Z,42.20
2023-07-09T20:44:04.673Z,42.40
2023-07-09T20:49:26.429Z,42.80
2023-07-09T20:54:29.934Z,43.30
2023-07-09T20:59:34.355Z,43.90
2023-07-09T21:04:37.292Z,44.00
2023-07-09T21:09:40.793Z,43.40
2023-07-09T21:14:46.205Z,43.20
2023-07-09T21:19:49.213Z,42.40
2023-07-09T21:24:56.901Z,42.60
2023-07-09T21:30:01.371Z,42.90
2023-07-09T21:35:10.404Z,42.70
2023-07-09T21:40:27.319Z,43.00
2023-07-09T21:45:35.068Z,42.90
2023-07-09T21:50:38.017Z,43.20
2023-07-09T21:55:40.977Z,43.20
2023-07-09T22:00:55.226Z,44.00
2023-07-09T22:05:59.600Z,44.10
2023-07-09T22:11:02.572Z,44.10
2023-07-09T22:16:07.680Z,44.60
2023-07-09T22:21:11.630Z,45.00
2023-07-09T22:26:14.548Z,45.20
2023-07-09T22:31:18.950Z,45.60
2023-07-09T22:36:21.962Z,45.60
2023-07-09T22:41:24.910Z,45.60
2023-07-09T22:46:29.220Z,45.70
2023-07-09T22:51:36.406Z,45.90
2023-07-09T22:56:39.404Z,46.30
2023-07-09T23:01:45.277Z,46.40
2023-07-09T23:06:48.789Z,46.40
2023-07-09T23:11:52.473Z,47.00
2023-07-09T23:16:57.244Z,47.60
2023-07-09T23:22:01.751Z,47.80
2023-07-09T23:27:05.091Z,47.60
2023-07-09T23:32:15.512Z,47.70
2023-07-09T23:37:18.486Z,48.20
2023-07-09T23:42:21.428Z,48.30
2023-07-09T23:47:25.975Z,48.50
2023-07-09T23:52:29.031Z,48.70
2023-07-09T23:57:31.923Z,48.60
